createdAt,value
2019-05-16T00:02:18.596Z,14.10
2019-05-16T00:04:48.278Z,14.10
2019-05-16T00:07:19.210Z,14.10
2019-05-16T00:09:48.630Z,14.10
2019-05-16T00:12:18.393Z,14.00
2019-05-16T00:14:49.016Z,14.00
2019-05-16T00:17:18.889Z,14.00
2019-05-16T00:19:48.524Z,14.00
2019-05-16T00:22:18.158Z,14.00
2019-05-16T00:24:48.745Z,14.00
2019-05-16T00:27:18.598Z,14.00
2019-05-16T00:29:48.750Z,14.00
2019-05-16T00:32:19.096Z,14.00
2019-05-16T00:34:48.472Z,14.00
2019-05-16T00:37:18.160Z,13.90
2019-05-16T00:39:48.232Z,13.90
2019-05-16T00:42:18.111Z,13.90
2019-05-16T00:44:47.858Z,13.90
2019-05-16T00:47:17.845Z,13.90
2019-05-16T00:49:48.002Z,13.90
2019-05-16T00:52:18.396Z,13.90
2019-05-16T00:54:48.663Z,13.90
2019-05-16T00:57:18.808Z,13.90
2019-05-16T00:59:48.611Z,13.90
2019-05-16T01:02:18.253Z,13.90
2019-05-16T01:04:48.709Z,13.90
2019-05-16T01:07:18.673Z,13.90
2019-05-16T01:09:48.766Z,13.90
2019-05-16T01:12:18.207Z,13.90
2019-05-16T01:14:47.873Z,13.90
2019-05-16T01:17:18.197Z,13.80
2019-05-16T01:19:48.465Z,13.80
2019-05-16T01:22:18.674Z,13.80
2019-05-16T01:24:49.262Z,13.80
2019-05-16T01:27:18.638Z,13.80
2019-05-16T01:29:47.902Z,13.80
2019-05-16T01:32:19.028Z,13.80
2019-05-16T01:34:48.380Z,13.80
2019-05-16T01:37:18.596Z,13.80
2019-05-16T01:39:48.449Z,13.80
2019-05-16T01:42:18.453Z,13.80
2019-05-16T01:44:48.727Z,13.80
2019-05-16T01:47:18.407Z,13.80
2019-05-16T01:49:48.787Z,13.80
2019-05-16T01:52:18.224Z,13.70
2019-05-16T01:54:48.144Z,13.70
2019-05-16T01:57:18.101Z,13.80
2019-05-16T01:59:48.540Z,13.70
2019-05-16T02:02:18.433Z,13.70
2019-05-16T02:04:48.522Z,13.70
2019-05-16T02:07:18.769Z,13.70
2019-05-16T02:09:48.282Z,13.70
2019-05-16T02:12:18.516Z,13.70
2019-05-16T02:14:48.161Z,13.70
2019-05-16T02:17:18.348Z,13.70
2019-05-16T02:19:48.552Z,13.70
2019-05-16T02:22:18.081Z,13.70
2019-05-16T02:24:47.977Z,13.70
2019-05-16T02:27:18.218Z,13.70
2019-05-16T02:29:47.670Z,13.70
2019-05-16T02:32:16.885Z,13.60
2019-05-16T02:34:46.108Z,13.60
2019-05-16T02:37:24.517Z,13.60
2019-05-16T02:39:46.284Z,13.60
2019-05-16T02:42:15.475Z,13.60
2019-05-16T02:44:44.801Z,13.60
2019-05-16T02:47:14.014Z,13.60
2019-05-16T02:49:43.252Z,13.60
2019-05-16T02:52:12.465Z,13.60
2019-05-16T02:54:41.858Z,13.60
2019-05-16T02:57:11.616Z,13.60
2019-05-16T02:59:41.681Z,13.60
2019-05-16T03:02:11.759Z,13.50
2019-05-16T03:04:44.237Z,13.50
2019-05-16T03:07:31.383Z,13.50
2019-05-16T03:09:44.407Z,13.50
2019-05-16T03:12:13.622Z,13.50
2019-05-16T03:14:42.853Z,13.50
2019-05-16T03:17:12.045Z,13.50
2019-05-16T03:19:41.877Z,13.50
2019-05-16T03:22:11.777Z,13.50
2019-05-16T03:24:42.071Z,13.50
2019-05-16T03:27:11.570Z,13.50
2019-05-16T03:29:41.780Z,13.50
2019-05-16T03:32:13.942Z,13.40
2019-05-16T03:34:44.136Z,13.40
2019-05-16T03:37:14.577Z,13.40
2019-05-16T03:39:44.357Z,13.40
2019-05-16T03:42:13.570Z,13.40
2019-05-16T03:44:42.797Z,13.40
2019-05-16T03:47:12.014Z,13.40
2019-05-16T03:49:42.224Z,13.40
2019-05-16T03:52:11.769Z,13.40
2019-05-16T03:54:42.051Z,13.40
2019-05-16T03:57:11.751Z,13.40
2019-05-16T03:59:41.166Z,13.40
2019-05-16T04:02:10.923Z,13.40
2019-05-16T04:04:41.704Z,13.30
2019-05-16T04:07:11.198Z,13.30
2019-05-16T04:09:41.205Z,13.30
2019-05-16T04:12:10.941Z,13.30
2019-05-16T04:14:41.146Z,13.30
2019-05-16T04:17:11.061Z,13.30
2019-05-16T04:19:41.543Z,13.30
2019-05-16T04:22:14.948Z,13.30
2019-05-16T04:24:45.615Z,13.30
2019-05-16T04:27:14.811Z,13.30
2019-05-16T04:29:44.017Z,13.30
2019-05-16T04:32:13.240Z,13.30
2019-05-16T04:34:42.464Z,13.30
2019-05-16T04:37:11.756Z,13.30
2019-05-16T04:39:41.588Z,13.30
2019-05-16T04:42:11.213Z,13.30
2019-05-16T04:44:41.693Z,13.30
2019-05-16T04:47:11.254Z,13.30
2019-05-16T04:49:41.196Z,13.30
2019-05-16T04:52:11.413Z,13.30
2019-05-16T04:54:41.934Z,13.30
2019-05-16T04:57:12.013Z,13.30
2019-05-16T04:59:41.936Z,13.30
2019-05-16T05:02:12.249Z,13.20
2019-05-16T05:04:41.820Z,13.20
2019-05-16T05:07:11.427Z,13.30
2019-05-16T05:09:41.082Z,13.20
2019-05-16T05:12:11.366Z,13.30
2019-05-16T05:14:41.565Z,13.30
2019-05-16T05:17:11.015Z,13.20
2019-05-16T05:19:41.354Z,13.30
2019-05-16T05:22:10.891Z,13.30
2019-05-16T05:24:40.604Z,13.30
2019-05-16T05:27:10.618Z,13.30
2019-05-16T05:29:40.004Z,13.30
2019-05-16T05:32:14.184Z,13.30
2019-05-16T05:34:40.269Z,13.30
2019-05-16T05:37:12.611Z,13.30
2019-05-16T05:39:40.485Z,13.30
2019-05-16T05:42:10.543Z,13.40
2019-05-16T05:44:40.215Z,13.40
2019-05-16T05:47:10.801Z,13.40
2019-05-16T05:49:40.528Z,13.40
2019-05-16T05:52:11.729Z,13.40
2019-05-16T05:54:40.924Z,13.40
2019-05-16T05:57:10.324Z,13.40
2019-05-16T05:59:40.456Z,13.40
2019-05-16T06:02:11.236Z,13.40
2019-05-16T06:04:40.727Z,13.50
2019-05-16T06:07:10.210Z,13.50
2019-05-16T06:09:52.396Z,13.50
2019-05-16T06:12:10.733Z,13.50
2019-05-16T06:14:41.910Z,13.50
2019-05-16T06:17:11.611Z,13.50
2019-05-16T06:19:40.908Z,13.50
2019-05-16T06:22:10.294Z,13.60
2019-05-16T06:24:39.988Z,13.60
2019-05-16T06:27:09.865Z,13.60
2019-05-16T06:29:40.287Z,13.60
2019-05-16T06:32:10.311Z,13.60
2019-05-16T06:34:40.378Z,13.60
2019-05-16T06:37:09.933Z,13.70
2019-05-16T06:39:42.707Z,13.70
2019-05-16T06:42:10.170Z,13.70
2019-05-16T06:44:44.511Z,13.80
2019-05-16T06:47:19.650Z,13.80
2019-05-16T06:49:44.736Z,13.80
2019-05-16T06:52:13.954Z,13.80
2019-05-16T06:54:43.217Z,13.90
2019-05-16T06:57:12.408Z,13.90
2019-05-16T06:59:41.655Z,13.90
2019-05-16T07:02:15.164Z,13.90
2019-05-16T07:04:41.830Z,13.90
2019-05-16T07:07:12.758Z,14.00
2019-05-16T07:09:57.282Z,14.00
2019-05-16T07:12:13.120Z,14.00
2019-05-16T07:14:42.356Z,14.00
2019-05-16T07:17:11.615Z,14.10
2019-05-16T07:19:40.912Z,14.10
2019-05-16T07:22:11.213Z,14.10
2019-05-16T07:24:40.562Z,14.20
2019-05-16T07:27:12.293Z,14.20
2019-05-16T07:29:40.779Z,14.20
2019-05-16T07:32:12.482Z,14.30
2019-05-16T07:34:40.937Z,14.30
2019-05-16T07:37:10.775Z,14.40
2019-05-16T07:39:41.832Z,14.40
2019-05-16T07:42:11.296Z,14.40
2019-05-16T07:44:40.866Z,14.50
2019-05-16T07:47:11.248Z,14.50
2019-05-16T07:49:40.796Z,14.50
2019-05-16T07:52:10.055Z,14.60
2019-05-16T07:54:40.359Z,14.60
2019-05-16T07:57:18.801Z,14.70
2019-05-16T07:59:41.098Z,14.70
2019-05-16T08:02:10.987Z,14.70
2019-05-16T08:04:40.617Z,14.80
2019-05-16T08:07:10.796Z,14.80
2019-05-16T08:09:40.151Z,14.80
2019-05-16T08:12:10.540Z,14.90
2019-05-16T08:14:40.930Z,14.90
2019-05-16T08:17:10.617Z,14.90
2019-05-16T08:19:40.117Z,14.90
2019-05-16T08:22:10.829Z,15.00
2019-05-16T08:24:40.355Z,15.00
2019-05-16T08:27:12.235Z,15.00
2019-05-16T08:29:40.634Z,15.10
2019-05-16T08:32:11.561Z,15.10
2019-05-16T08:34:41.110Z,15.10
2019-05-16T08:37:32.841Z,15.20
2019-05-16T08:39:41.503Z,15.20
2019-05-16T08:42:13.107Z,15.20
2019-05-16T08:44:41.979Z,15.30
2019-05-16T08:47:12.051Z,15.30
2019-05-16T08:49:42.355Z,15.30
2019-05-16T08:52:11.803Z,15.40
2019-05-16T08:54:43.796Z,15.40
2019-05-16T08:57:25.803Z,15.50
2019-05-16T09:00:41.885Z,15.50
2019-05-16T09:03:12.571Z,15.60
2019-05-16T09:05:43.159Z,15.60
2019-05-16T09:08:13.323Z,15.70
2019-05-16T09:10:55.664Z,15.70
2019-05-16T09:13:17.594Z,15.70
2019-05-16T09:15:48.189Z,15.80
2019-05-16T09:18:19.730Z,15.80
2019-05-16T09:20:50.649Z,15.90
2019-05-16T09:23:21.105Z,15.90
2019-05-16T09:25:52.504Z,16.00
2019-05-16T09:28:22.695Z,16.00
2019-05-16T09:30:52.907Z,16.20
2019-05-16T09:33:26.930Z,16.10
2019-05-16T09:35:57.511Z,16.10
2019-05-16T09:38:28.622Z,16.20
2019-05-16T09:40:59.877Z,16.20
2019-05-16T09:43:30.091Z,16.20
2019-05-16T09:46:03.966Z,16.20
2019-05-16T09:48:32.394Z,16.30
2019-05-16T09:51:02.584Z,16.30
2019-05-16T09:53:32.897Z,16.30
2019-05-16T09:56:03.428Z,16.30
2019-05-16T09:58:33.665Z,16.40
2019-05-16T10:01:03.854Z,16.40
2019-05-16T10:03:34.154Z,16.40
2019-05-16T10:06:04.430Z,16.40
2019-05-16T10:08:34.653Z,16.40
2019-05-16T10:11:06.290Z,16.40
2019-05-16T10:13:37.577Z,16.50
2019-05-16T10:16:08.133Z,16.50
2019-05-16T10:18:38.365Z,16.50
2019-05-16T10:21:08.543Z,16.50
2019-05-16T10:23:38.777Z,16.50
2019-05-16T10:26:09.001Z,16.60
2019-05-16T10:28:39.221Z,16.60
2019-05-16T10:31:09.532Z,16.60
2019-05-16T10:33:39.810Z,16.60
2019-05-16T10:36:10.141Z,16.70
2019-05-16T10:38:40.343Z,16.70
2019-05-16T10:41:10.532Z,16.70
2019-05-16T10:43:40.887Z,16.80
2019-05-16T10:46:11.157Z,16.80
2019-05-16T10:48:41.434Z,16.90
2019-05-16T10:51:11.647Z,16.90
2019-05-16T10:54:02.598Z,17.00
2019-05-16T10:56:13.874Z,17.00
2019-05-16T10:59:10.667Z,17.00
2019-05-16T11:01:26.530Z,17.10
2019-05-16T11:03:49.409Z,17.10
2019-05-16T11:06:25.715Z,17.20
2019-05-16T11:08:51.577Z,17.20
2019-05-16T11:11:21.765Z,17.20
2019-05-16T11:13:52.018Z,17.30
2019-05-16T11:16:22.207Z,17.40
2019-05-16T11:18:52.438Z,17.40
2019-05-16T11:21:22.631Z,17.50
2019-05-16T11:23:52.916Z,17.50
2019-05-16T11:26:23.114Z,17.50
2019-05-16T11:28:53.405Z,17.60
2019-05-16T11:31:23.605Z,17.60
2019-05-16T11:33:53.912Z,17.70
2019-05-16T11:36:26.640Z,17.70
2019-05-16T11:39:01.378Z,17.80
2019-05-16T11:41:28.904Z,17.80
2019-05-16T11:43:59.125Z,17.80
2019-05-16T11:46:29.349Z,17.90
2019-05-16T11:48:59.570Z,17.90
2019-05-16T11:51:29.791Z,18.00
2019-05-16T11:54:00.208Z,18.00
2019-05-16T11:56:30.557Z,18.00
2019-05-16T11:59:00.773Z,18.10
2019-05-16T12:01:30.974Z,18.10
2019-05-16T12:04:01.190Z,18.10
2019-05-16T12:06:31.383Z,18.20
2019-05-16T12:09:01.601Z,18.20
2019-05-16T12:11:32.682Z,18.20
2019-05-16T12:14:02.884Z,18.20
2019-05-16T12:16:33.143Z,18.30
2019-05-16T12:19:03.385Z,18.30
2019-05-16T12:21:33.582Z,18.30
2019-05-16T12:24:03.805Z,18.40
2019-05-16T12:26:34.023Z,18.40
2019-05-16T12:29:04.292Z,18.40
2019-05-16T12:31:37.150Z,18.50
2019-05-16T12:34:09.430Z,18.50
2019-05-16T12:36:39.952Z,18.50
2019-05-16T12:39:12.688Z,18.50
2019-05-16T12:41:42.909Z,18.60
2019-05-16T12:44:16.148Z,18.60
2019-05-16T12:46:47.415Z,18.70
2019-05-16T12:49:17.892Z,18.70
2019-05-16T12:51:48.102Z,18.80
2019-05-16T12:54:18.566Z,18.80
2019-05-16T12:56:48.902Z,18.90
2019-05-16T12:59:21.665Z,18.90
2019-05-16T13:01:51.021Z,18.90
2019-05-16T13:04:21.289Z,19.00
2019-05-16T13:06:51.499Z,19.00
2019-05-16T13:09:22.750Z,19.00
2019-05-16T13:11:52.972Z,19.00
2019-05-16T13:14:23.162Z,19.00
2019-05-16T13:16:54.454Z,19.00
2019-05-16T13:19:32.079Z,19.10
2019-05-16T13:21:57.735Z,19.10
2019-05-16T13:24:28.188Z,19.10
2019-05-16T13:26:59.518Z,19.20
2019-05-16T13:29:29.699Z,19.20
2019-05-16T13:31:59.912Z,19.20
2019-05-16T13:34:30.114Z,19.30
2019-05-16T13:37:00.319Z,19.30
2019-05-16T13:39:30.507Z,19.40
2019-05-16T13:42:00.736Z,19.40
2019-05-16T13:44:30.933Z,19.40
2019-05-16T13:47:01.186Z,19.50
2019-05-16T13:49:31.577Z,19.50
2019-05-16T13:52:01.845Z,19.60
2019-05-16T13:54:32.104Z,19.50
2019-05-16T13:57:02.335Z,19.60
2019-05-16T13:59:32.547Z,19.60
2019-05-16T14:02:02.812Z,19.60
2019-05-16T14:04:33.016Z,19.70
2019-05-16T14:07:03.508Z,19.70
2019-05-16T14:09:33.787Z,19.70
2019-05-16T14:12:04.003Z,19.70
2019-05-16T14:14:38.997Z,19.80
2019-05-16T14:17:14.180Z,19.80
2019-05-16T14:19:39.293Z,19.80
2019-05-16T14:22:09.661Z,19.80
2019-05-16T14:24:39.862Z,19.90
2019-05-16T14:27:10.085Z,19.90
2019-05-16T14:29:40.272Z,20.00
2019-05-16T14:32:10.966Z,20.00
2019-05-16T14:34:41.329Z,20.00
2019-05-16T14:37:11.548Z,20.00
2019-05-16T14:39:41.837Z,20.00
2019-05-16T14:42:12.050Z,20.00
2019-05-16T14:44:59.760Z,20.00
2019-05-16T14:47:14.162Z,20.00
2019-05-16T14:49:44.374Z,20.00
2019-05-16T14:52:14.565Z,20.00
2019-05-16T14:54:46.840Z,20.00
2019-05-16T14:57:16.807Z,20.00
2019-05-16T14:59:47.232Z,20.00
2019-05-16T15:02:18.261Z,20.00
2019-05-16T15:04:49.534Z,20.00
2019-05-16T15:07:21.156Z,20.10
2019-05-16T15:09:51.385Z,20.10
2019-05-16T15:12:21.575Z,20.10
2019-05-16T15:14:51.785Z,20.10
2019-05-16T15:17:22.083Z,20.20
2019-05-16T15:19:52.468Z,20.10
2019-05-16T15:22:27.369Z,20.10
2019-05-16T15:24:59.430Z,20.10
2019-05-16T15:27:29.953Z,20.10
2019-05-16T15:30:01.231Z,20.00
2019-05-16T15:32:31.994Z,20.00
2019-05-16T15:35:02.396Z,20.00
2019-05-16T15:37:32.650Z,19.90
2019-05-16T15:40:02.869Z,19.90
2019-05-16T15:42:33.130Z,19.80
2019-05-16T15:45:04.017Z,19.80
2019-05-16T15:47:37.150Z,19.80
2019-05-16T15:50:09.800Z,19.80
2019-05-16T15:52:40.000Z,19.80
2019-05-16T15:55:10.547Z,19.70
2019-05-16T15:57:41.788Z,19.70
2019-05-16T16:00:12.090Z,19.60
2019-05-16T16:02:42.300Z,19.60
2019-05-16T16:05:12.613Z,19.60
2019-05-16T16:07:42.878Z,19.60
2019-05-16T16:10:13.100Z,19.50
2019-05-16T16:12:43.362Z,19.50
2019-05-16T16:15:17.352Z,19.50
2019-05-16T16:17:47.890Z,19.40
2019-05-16T16:20:18.100Z,19.40
2019-05-16T16:22:48.371Z,19.40
2019-05-16T16:25:18.595Z,19.30
2019-05-16T16:27:48.787Z,19.30
2019-05-16T16:30:19.101Z,19.20
2019-05-16T16:32:49.372Z,19.20
2019-05-16T16:35:20.661Z,19.20
2019-05-16T16:37:50.938Z,19.10
2019-05-16T16:40:21.165Z,19.10
2019-05-16T16:42:51.370Z,19.10
2019-05-16T16:45:21.580Z,19.00
2019-05-16T16:47:51.843Z,19.00
2019-05-16T16:50:22.096Z,18.90
2019-05-16T16:52:52.431Z,18.90
2019-05-16T16:55:22.663Z,18.90
2019-05-16T16:57:55.877Z,18.80
2019-05-16T17:00:27.736Z,18.80
2019-05-16T17:03:03.386Z,18.70
2019-05-16T17:05:28.916Z,18.70
2019-05-16T17:07:59.167Z,18.70
2019-05-16T17:10:29.388Z,18.60
2019-05-16T17:12:59.593Z,18.60
2019-05-16T17:15:29.811Z,18.60
2019-05-16T17:18:00.081Z,18.50
2019-05-16T17:20:30.370Z,18.50
2019-05-16T17:23:00.631Z,18.50
2019-05-16T17:25:30.930Z,18.40
2019-05-16T17:28:01.195Z,18.40
2019-05-16T17:30:31.497Z,18.30
2019-05-16T17:33:01.934Z,18.30
2019-05-16T17:35:32.537Z,18.30
2019-05-16T17:38:02.822Z,18.20
2019-05-16T17:40:33.117Z,18.20
2019-05-16T17:43:03.390Z,18.20
2019-05-16T17:45:33.678Z,18.10
2019-05-16T17:48:04.016Z,18.10
2019-05-16T17:50:34.336Z,18.10
2019-05-16T17:53:06.846Z,18.10
2019-05-16T17:55:37.083Z,18.00
2019-05-16T17:58:09.070Z,18.00
2019-05-16T18:00:39.538Z,18.00
2019-05-16T18:03:09.819Z,18.00
2019-05-16T18:05:40.191Z,17.90
2019-05-16T18:08:10.590Z,17.90
2019-05-16T18:10:40.812Z,17.90
2019-05-16T18:13:11.103Z,17.90
2019-05-16T18:15:41.311Z,17.80
2019-05-16T18:18:11.530Z,17.80
2019-05-16T18:20:54.743Z,17.80
2019-05-16T18:23:13.660Z,17.80
2019-05-16T18:25:43.846Z,17.70
2019-05-16T18:28:14.069Z,17.70
2019-05-16T18:30:44.282Z,17.70
2019-05-16T18:33:16.614Z,17.70
2019-05-16T18:35:47.304Z,17.70
2019-05-16T18:38:17.522Z,17.60
2019-05-16T18:40:47.736Z,17.60
2019-05-16T18:43:17.965Z,17.60
2019-05-16T18:45:48.176Z,17.60
2019-05-16T18:48:18.410Z,17.60
2019-05-16T18:50:48.685Z,17.60
2019-05-16T18:53:18.996Z,17.50
2019-05-16T18:55:49.193Z,17.50
2019-05-16T18:58:19.427Z,17.50
2019-05-16T19:00:49.659Z,17.50
2019-05-16T19:03:19.939Z,17.40
2019-05-16T19:05:50.245Z,17.40
2019-05-16T19:08:20.474Z,17.40
2019-05-16T19:10:50.757Z,17.40
2019-05-16T19:13:21.042Z,17.40
2019-05-16T19:15:51.352Z,17.40
2019-05-16T19:18:21.544Z,17.30
2019-05-16T19:20:51.753Z,17.30
2019-05-16T19:23:21.967Z,17.30
2019-05-16T19:25:54.033Z,17.30
2019-05-16T19:28:28.315Z,17.20
2019-05-16T19:30:57.180Z,17.20
2019-05-16T19:33:27.768Z,17.20
2019-05-16T19:35:57.960Z,17.20
2019-05-16T19:38:29.276Z,17.20
2019-05-16T19:40:59.887Z,17.20
2019-05-16T19:43:30.109Z,17.10
2019-05-16T19:46:00.329Z,17.10
2019-05-16T19:48:30.644Z,17.10
2019-05-16T19:51:00.865Z,17.10
2019-05-16T19:53:31.163Z,17.00
2019-05-16T19:56:01.369Z,17.10
2019-05-16T19:58:31.596Z,17.00
2019-05-16T20:01:01.935Z,17.00
2019-05-16T20:03:32.159Z,17.00
2019-05-16T20:06:02.364Z,17.00
2019-05-16T20:08:32.657Z,17.00
2019-05-16T20:11:02.922Z,16.90
2019-05-16T20:13:33.225Z,16.90
2019-05-16T20:16:03.450Z,16.90
2019-05-16T20:18:33.737Z,16.90
2019-05-16T20:21:03.934Z,16.90
2019-05-16T20:23:34.155Z,16.90
2019-05-16T20:26:04.420Z,16.90
2019-05-16T20:28:36.902Z,16.90
2019-05-16T20:31:08.043Z,16.80
2019-05-16T20:33:38.494Z,16.80
2019-05-16T20:36:09.429Z,16.80
2019-05-16T20:38:39.996Z,16.80
2019-05-16T20:41:10.199Z,16.80
2019-05-16T20:43:40.520Z,16.80
2019-05-16T20:46:10.801Z,16.80
2019-05-16T20:48:41.065Z,16.70
2019-05-16T20:51:11.380Z,16.70
2019-05-16T20:53:41.592Z,16.70
2019-05-16T20:56:11.886Z,16.60
2019-05-16T20:58:42.177Z,16.70
2019-05-16T21:01:12.412Z,16.60
2019-05-16T21:03:42.704Z,16.60
2019-05-16T21:06:13.100Z,16.60
2019-05-16T21:08:43.301Z,16.60
2019-05-16T21:11:17.022Z,16.50
2019-05-16T21:13:48.839Z,16.50
2019-05-16T21:16:18.662Z,16.50
2019-05-16T21:18:48.857Z,16.60
2019-05-16T21:21:19.326Z,16.50
2019-05-16T21:23:49.862Z,16.50
2019-05-16T21:26:20.181Z,16.50
2019-05-16T21:28:50.414Z,16.50
2019-05-16T21:31:20.775Z,16.50
2019-05-16T21:33:50.989Z,16.50
2019-05-16T21:36:21.274Z,16.40
2019-05-16T21:38:51.627Z,16.50
2019-05-16T21:41:21.927Z,16.40
2019-05-16T21:43:52.133Z,16.40
2019-05-16T21:46:22.454Z,16.40
2019-05-16T21:48:53.727Z,16.40
2019-05-16T21:51:26.648Z,16.40
2019-05-16T21:53:56.386Z,16.40
2019-05-16T21:56:28.421Z,16.40
2019-05-16T21:58:58.625Z,16.30
2019-05-16T22:01:28.923Z,16.40
2019-05-16T22:03:59.298Z,16.40
2019-05-16T22:06:29.613Z,16.30
2019-05-16T22:09:00.108Z,16.30
2019-05-16T22:11:30.689Z,16.30
2019-05-16T22:14:01.275Z,16.30
2019-05-16T22:16:31.572Z,16.30
2019-05-16T22:19:01.858Z,16.30
2019-05-16T22:21:32.160Z,16.20
2019-05-16T22:24:02.486Z,16.20
2019-05-16T22:26:32.724Z,16.20
2019-05-16T22:29:03.013Z,16.20
2019-05-16T22:31:34.050Z,16.20
2019-05-16T22:34:07.402Z,16.20
2019-05-16T22:36:37.281Z,16.20
2019-05-16T22:39:08.056Z,16.20
2019-05-16T22:41:38.361Z,16.20
2019-05-16T22:44:09.685Z,16.20
2019-05-16T22:46:39.910Z,16.20
2019-05-16T22:49:10.223Z,16.20
2019-05-16T22:51:40.516Z,16.20
2019-05-16T22:54:10.723Z,16.20
2019-05-16T22:56:41.044Z,16.10
2019-05-16T22:59:11.242Z,16.10
2019-05-16T23:01:41.476Z,16.10
2019-05-16T23:04:11.668Z,16.10
2019-05-16T23:06:41.965Z,16.10
2019-05-16T23:09:12.398Z,16.10
2019-05-16T23:11:42.913Z,16.00
2019-05-16T23:14:13.148Z,16.00
2019-05-16T23:16:43.733Z,16.00
2019-05-16T23:19:13.962Z,16.00
2019-05-16T23:21:44.220Z,16.00
2019-05-16T23:24:14.450Z,16.00
2019-05-16T23:26:46.834Z,16.00
2019-05-16T23:29:17.021Z,16.00
2019-05-16T23:31:47.450Z,16.00
2019-05-16T23:34:18.961Z,16.00
2019-05-16T23:36:49.134Z,16.00
2019-05-16T23:39:19.359Z,15.90
2019-05-16T23:41:49.549Z,15.90
2019-05-16T23:44:19.835Z,15.90
2019-05-16T23:46:50.039Z,15.90
2019-05-16T23:49:20.259Z,15.90
2019-05-16T23:51:50.517Z,15.90
2019-05-16T23:54:20.744Z,15.90
2019-05-16T23:56:51.016Z,15.90
2019-05-16T23:59:21.240Z,15.90
